createdAt,value
2023-03-30T00:00:23.102Z,74.42
2023-03-30T00:02:53.977Z,73.87
2023-03-30T00:05:23.713Z,75.54
2023-03-30T00:07:51.013Z,76.73
2023-03-30T00:10:19.264Z,76.33
2023-03-30T00:12:47.521Z,76.34
2023-03-30T00:15:16.602Z,75.80
2023-03-30T00:17:44.022Z,76.38
2023-03-30T00:20:12.646Z,75.01
2023-03-30T00:22:43.009Z,75.70
2023-03-30T00:25:12.371Z,76.28
2023-03-30T00:27:40.274Z,76.55
2023-03-30T00:30:10.863Z,76.49
2023-03-30T00:32:37.708Z,77.11
2023-03-30T00:35:05.377Z,78.96
2023-03-30T00:37:32.408Z,78.22
2023-03-30T00:39:58.958Z,78.71
2023-03-30T00:42:25.657Z,78.71
2023-03-30T00:45:10.278Z,79.30
2023-03-30T00:47:41.540Z,78.77
2023-03-30T00:50:09.560Z,77.76
2023-03-30T00:52:37.498Z,77.12
2023-03-30T00:55:10.272Z,76.20
2023-03-30T00:57:39.043Z,76.83
2023-03-30T01:00:08.804Z,77.28
2023-03-30T01:02:46.080Z,76.61
2023-03-30T01:05:13.188Z,77.00
2023-03-30T01:07:41.493Z,77.35
2023-03-30T01:10:09.704Z,78.17
2023-03-30T01:12:36.697Z,78.02
2023-03-30T01:15:03.546Z,77.59
2023-03-30T01:17:45.267Z,78.19
2023-03-30T01:20:28.348Z,77.10
2023-03-30T01:23:13.464Z,77.86
2023-03-30T01:25:42.931Z,78.02
2023-03-30T01:28:39.110Z,78.15
2023-03-30T01:31:29.592Z,77.57
2023-03-30T01:34:17.953Z,78.47
2023-03-30T01:36:59.668Z,79.13
2023-03-30T01:40:02.227Z,77.45
2023-03-30T01:42:53.539Z,78.35
2023-03-30T01:45:25.989Z,78.33
2023-03-30T01:47:58.130Z,79.05
2023-03-30T01:50:30.347Z,79.13
2023-03-30T01:53:02.818Z,79.20
2023-03-30T01:55:36.851Z,77.94
2023-03-30T01:58:21.732Z,78.41
2023-03-30T02:00:50.454Z,78.92
2023-03-30T02:03:30.507Z,78.45
2023-03-30T02:06:07.606Z,78.77
2023-03-30T02:08:36.850Z,79.22
2023-03-30T02:11:04.286Z,78.86
2023-03-30T02:13:32.840Z,79.81
2023-03-30T02:16:05.005Z,79.71
2023-03-30T02:18:31.664Z,81.46
2023-03-30T02:20:59.345Z,81.87
2023-03-30T02:23:31.932Z,80.83
2023-03-30T02:25:58.548Z,79.57
2023-03-30T02:28:25.503Z,79.84
2023-03-30T02:30:52.130Z,80.27
2023-03-30T02:33:29.879Z,80.75
2023-03-30T02:36:04.117Z,79.81
2023-03-30T02:38:42.541Z,80.17
2023-03-30T02:41:37.898Z,80.93
2023-03-30T02:44:18.497Z,80.64
2023-03-30T02:47:26.257Z,80.34
2023-03-30T02:50:10.366Z,81.54
2023-03-30T02:53:08.872Z,81.91
2023-03-30T02:55:45.979Z,82.69
2023-03-30T02:58:16.179Z,82.06
2023-03-30T03:01:08.399Z,82.44
2023-03-30T03:03:42.843Z,83.12
2023-03-30T03:06:11.601Z,83.19
2023-03-30T03:08:41.058Z,84.32
2023-03-30T03:11:08.189Z,84.25
2023-03-30T03:13:39.679Z,84.27
2023-03-30T03:16:11.015Z,85.14
2023-03-30T03:18:41.914Z,85.21
2023-03-30T03:21:11.203Z,85.07
2023-03-30T03:23:38.060Z,85.12
2023-03-30T03:26:05.050Z,85.33
2023-03-30T03:28:31.786Z,85.04
2023-03-30T03:30:59.841Z,85.71
2023-03-30T03:33:27.480Z,85.83
2023-03-30T03:35:54.452Z,85.30
2023-03-30T03:38:22.212Z,85.52
2023-03-30T03:40:57.545Z,85.46
2023-03-30T03:43:24.306Z,84.20
2023-03-30T03:45:51.644Z,85.84
2023-03-30T03:48:20.413Z,85.73
2023-03-30T03:50:55.099Z,87.01
2023-03-30T03:53:21.785Z,86.96
2023-03-30T03:55:48.478Z,86.26
2023-03-30T03:58:16.469Z,85.16
2023-03-30T04:00:43.488Z,84.93
2023-03-30T04:03:12.272Z,85.45
2023-03-30T04:05:39.693Z,84.04
2023-03-30T04:08:09.132Z,84.45
2023-03-30T04:10:35.651Z,85.42
2023-03-30T04:13:02.316Z,85.58
2023-03-30T04:15:29.039Z,86.30
2023-03-30T04:17:58.438Z,87.84
2023-03-30T04:20:26.529Z,87.05
2023-03-30T04:22:53.807Z,86.62
2023-03-30T04:25:29.127Z,85.91
2023-03-30T04:27:56.769Z,85.70
2023-03-30T04:30:24.201Z,86.55
2023-03-30T04:33:03.912Z,86.14
2023-03-30T04:35:32.209Z,86.84
2023-03-30T04:38:00.168Z,87.25
2023-03-30T04:40:26.923Z,87.88
2023-03-30T04:42:53.758Z,87.27
2023-03-30T04:45:21.052Z,86.99
2023-03-30T04:47:47.745Z,87.44
2023-03-30T04:50:14.760Z,87.63
2023-03-30T04:52:41.344Z,87.90
2023-03-30T04:55:09.822Z,89.21
2023-03-30T04:57:36.466Z,89.18
2023-03-30T05:00:07.721Z,89.42
2023-03-30T05:02:34.497Z,89.89
2023-03-30T05:05:01.602Z,90.45
2023-03-30T05:07:28.174Z,91.12
2023-03-30T05:09:54.705Z,90.99
2023-03-30T05:12:21.583Z,91.15
2023-03-30T05:14:48.139Z,90.78
2023-03-30T05:17:14.825Z,91.12
2023-03-30T05:19:41.408Z,92.33
2023-03-30T05:22:07.971Z,92.68
2023-03-30T05:24:34.662Z,91.14
2023-03-30T05:27:02.320Z,92.13
2023-03-30T05:29:31.257Z,91.45
2023-03-30T05:31:57.816Z,91.40
2023-03-30T05:34:24.455Z,90.72
2023-03-30T05:36:51.052Z,89.87
2023-03-30T05:39:17.647Z,89.29
2023-03-30T05:41:44.176Z,88.15
2023-03-30T05:44:11.290Z,87.77
2023-03-30T05:46:37.889Z,86.87
2023-03-30T05:49:04.937Z,86.79
2023-03-30T05:51:31.526Z,86.00
2023-03-30T05:53:58.415Z,84.67
2023-03-30T05:56:25.235Z,83.96
2023-03-30T05:58:51.905Z,83.69
2023-03-30T06:01:20.845Z,83.17
2023-03-30T06:03:48.082Z,82.22
2023-03-30T06:06:16.525Z,80.10
2023-03-30T06:08:43.348Z,79.50
2023-03-30T06:11:09.928Z,79.89
2023-03-30T06:13:36.507Z,79.84
2023-03-30T06:16:03.795Z,79.13
2023-03-30T06:18:30.763Z,75.71
2023-03-30T06:20:57.527Z,73.26
2023-03-30T06:23:24.099Z,73.24
2023-03-30T06:25:53.260Z,72.78
2023-03-30T06:28:20.665Z,69.78
2023-03-30T06:30:49.284Z,71.41
2023-03-30T06:33:17.691Z,70.43
2023-03-30T06:35:48.556Z,70.52
2023-03-30T06:38:16.317Z,71.46
2023-03-30T06:40:43.026Z,66.17
2023-03-30T06:43:17.168Z,65.66
2023-03-30T06:45:50.060Z,64.79
2023-03-30T06:48:16.753Z,65.69
2023-03-30T06:50:46.186Z,64.50
2023-03-30T06:53:13.201Z,63.77
2023-03-30T06:55:40.009Z,63.31
2023-03-30T06:58:06.627Z,62.08
2023-03-30T07:00:33.432Z,62.67
2023-03-30T07:03:00.335Z,63.79
2023-03-30T07:05:29.968Z,61.31
2023-03-30T07:07:57.065Z,61.09
2023-03-30T07:10:23.697Z,61.94
2023-03-30T07:12:50.396Z,61.76
2023-03-30T07:15:17.325Z,61.31
2023-03-30T07:17:44.223Z,61.00
2023-03-30T07:20:15.988Z,60.89
2023-03-30T07:22:43.191Z,61.60
2023-03-30T07:25:10.950Z,61.41
2023-03-30T07:27:38.319Z,61.43
2023-03-30T07:30:20.507Z,60.54
2023-03-30T07:32:50.928Z,60.18
2023-03-30T07:35:18.585Z,59.72
2023-03-30T07:37:45.824Z,59.28
2023-03-30T07:40:13.052Z,60.06
2023-03-30T07:42:39.710Z,60.69
2023-03-30T07:45:07.299Z,61.65
2023-03-30T07:47:33.975Z,63.35
2023-03-30T07:50:00.820Z,60.82
2023-03-30T07:52:27.558Z,58.79
2023-03-30T07:54:57.243Z,59.84
2023-03-30T07:57:24.477Z,60.42
2023-03-30T07:59:51.502Z,58.74
2023-03-30T08:02:18.357Z,58.37
2023-03-30T08:04:45.655Z,59.02
2023-03-30T08:07:13.379Z,58.15
2023-03-30T08:09:40.009Z,58.37
2023-03-30T08:12:07.130Z,59.04
2023-03-30T08:14:33.734Z,60.29
2023-03-30T08:17:00.693Z,60.18
2023-03-30T08:19:28.639Z,59.73
2023-03-30T08:21:57.077Z,58.85
2023-03-30T08:24:24.038Z,57.64
2023-03-30T08:26:51.175Z,57.04
2023-03-30T08:29:18.816Z,57.52
2023-03-30T08:31:45.740Z,55.71
2023-03-30T08:34:12.461Z,55.94
2023-03-30T08:36:39.567Z,56.49
2023-03-30T08:39:06.400Z,54.64
2023-03-30T08:42:06.235Z,55.70
2023-03-30T08:44:39.809Z,56.50
2023-03-30T08:47:13.184Z,56.06
2023-03-30T08:49:44.813Z,55.79
2023-03-30T08:52:22.883Z,55.12
2023-03-30T08:54:52.123Z,55.79
2023-03-30T08:57:38.236Z,55.91
2023-03-30T09:00:27.406Z,55.85
2023-03-30T09:03:08.066Z,55.73
2023-03-30T09:05:42.940Z,56.37
2023-03-30T09:08:12.681Z,57.87
2023-03-30T09:10:45.269Z,57.00
2023-03-30T09:13:18.798Z,56.12
2023-03-30T09:16:03.661Z,56.80
2023-03-30T09:18:35.187Z,55.43
2023-03-30T09:21:06.314Z,54.48
2023-03-30T09:23:34.032Z,54.27
2023-03-30T09:26:23.758Z,54.61
2023-03-30T09:28:53.550Z,53.45
2023-03-30T09:31:44.303Z,52.19
2023-03-30T09:34:31.228Z,51.80
2023-03-30T09:37:04.933Z,52.05
2023-03-30T09:39:34.598Z,52.80
2023-03-30T09:42:14.658Z,53.36
2023-03-30T09:44:45.101Z,53.10
2023-03-30T09:47:28.498Z,52.01
2023-03-30T09:50:00.933Z,51.91
2023-03-30T09:52:30.110Z,52.58
2023-03-30T09:54:57.385Z,52.18
2023-03-30T09:57:32.360Z,52.36
2023-03-30T10:00:01.374Z,52.76
2023-03-30T10:02:31.504Z,52.52
2023-03-30T10:05:02.433Z,52.52
2023-03-30T10:07:29.165Z,51.38
2023-03-30T10:09:58.757Z,52.37
2023-03-30T10:12:27.407Z,52.86
2023-03-30T10:15:01.582Z,53.35
2023-03-30T10:17:28.908Z,52.27
2023-03-30T10:20:24.381Z,53.39
2023-03-30T10:23:05.868Z,53.58
2023-03-30T10:25:33.665Z,53.57
2023-03-30T10:28:03.212Z,51.97
2023-03-30T10:30:30.744Z,52.10
2023-03-30T10:33:02.517Z,52.21
2023-03-30T10:35:37.764Z,50.76
2023-03-30T10:38:07.067Z,50.44
2023-03-30T10:40:37.264Z,49.44
2023-03-30T10:43:08.605Z,49.18
2023-03-30T10:45:40.838Z,49.31
2023-03-30T10:48:34.757Z,50.23
2023-03-30T10:51:17.988Z,49.90
2023-03-30T10:53:59.878Z,49.52
2023-03-30T10:56:41.870Z,49.89
2023-03-30T10:59:32.752Z,51.04
2023-03-30T11:02:02.295Z,51.35
2023-03-30T11:04:34.050Z,51.02
2023-03-30T11:07:01.770Z,48.23
2023-03-30T11:09:37.800Z,46.00
2023-03-30T11:12:20.512Z,45.73
2023-03-30T11:14:55.415Z,45.83
2023-03-30T11:18:00.011Z,45.11
2023-03-30T11:20:31.226Z,45.66
2023-03-30T11:23:00.928Z,46.18
2023-03-30T11:25:34.480Z,46.35
2023-03-30T11:28:16.321Z,46.91
2023-03-30T11:30:43.896Z,47.72
2023-03-30T11:33:29.298Z,47.80
2023-03-30T11:36:02.149Z,49.11
2023-03-30T11:38:56.586Z,48.32
2023-03-30T11:41:31.972Z,50.89
2023-03-30T11:43:58.601Z,46.97
2023-03-30T11:46:39.724Z,47.08
2023-03-30T11:49:07.532Z,46.37
2023-03-30T11:51:41.684Z,46.32
2023-03-30T11:54:28.532Z,43.27
2023-03-30T11:57:11.141Z,45.01
2023-03-30T12:00:09.775Z,47.60
2023-03-30T12:03:08.296Z,46.54
2023-03-30T12:05:43.395Z,44.32
2023-03-30T12:08:20.870Z,43.88
2023-03-30T12:10:51.603Z,39.42
2023-03-30T12:13:19.867Z,40.39
2023-03-30T12:16:03.855Z,39.96
2023-03-30T12:18:42.429Z,39.69
2023-03-30T12:21:31.873Z,39.04
2023-03-30T12:24:00.494Z,37.22
2023-03-30T12:26:30.002Z,37.67
2023-03-30T12:29:48.014Z,36.58
2023-03-30T12:31:57.278Z,37.35
2023-03-30T12:34:27.228Z,38.48
2023-03-30T12:37:00.916Z,39.53
2023-03-30T12:39:34.095Z,39.77
2023-03-30T12:42:15.053Z,40.05
2023-03-30T12:44:50.810Z,40.68
2023-03-30T12:47:33.625Z,40.89
2023-03-30T12:50:15.299Z,41.65
2023-03-30T12:52:47.838Z,42.28
2023-03-30T12:55:43.250Z,42.71
2023-03-30T12:58:43.773Z,42.22
2023-03-30T13:01:32.880Z,43.11
2023-03-30T13:04:02.538Z,43.08
2023-03-30T13:06:33.276Z,42.91
2023-03-30T13:09:25.965Z,43.08
2023-03-30T13:11:52.470Z,43.59
2023-03-30T13:14:31.216Z,43.77
2023-03-30T13:17:01.092Z,43.98
2023-03-30T13:19:33.662Z,43.95
2023-03-30T13:22:12.305Z,44.07
2023-03-30T13:24:42.262Z,44.58
2023-03-30T13:27:15.024Z,44.13
2023-03-30T13:29:48.708Z,44.07
2023-03-30T13:32:27.636Z,44.38
2023-03-30T13:35:07.580Z,44.42
2023-03-30T13:37:55.741Z,44.67
2023-03-30T13:40:54.333Z,44.70
2023-03-30T13:43:50.823Z,45.66
2023-03-30T13:46:29.271Z,45.68
2023-03-30T13:49:03.101Z,46.02
2023-03-30T13:51:30.735Z,46.24
2023-03-30T13:54:07.248Z,46.62
2023-03-30T13:56:38.102Z,46.79
2023-03-30T13:59:10.312Z,47.21
2023-03-30T14:01:39.485Z,46.95
2023-03-30T14:04:10.341Z,47.56
2023-03-30T14:06:44.260Z,47.65
2023-03-30T14:09:23.239Z,47.74
2023-03-30T14:11:57.504Z,47.60
2023-03-30T14:14:33.972Z,47.75
2023-03-30T14:17:03.088Z,47.43
2023-03-30T14:19:34.861Z,47.77
2023-03-30T14:22:09.216Z,48.87
2023-03-30T14:24:36.274Z,48.93
2023-03-30T14:27:06.990Z,49.58
2023-03-30T14:29:34.277Z,49.13
2023-03-30T14:34:33.811Z,49.53
2023-03-30T14:37:03.626Z,49.14
2023-03-30T14:39:32.353Z,49.58
2023-03-30T14:42:09.757Z,50.06
2023-03-30T14:44:40.857Z,49.34
2023-03-30T14:47:08.121Z,49.29
2023-03-30T14:49:36.724Z,49.45
2023-03-30T14:52:39.796Z,50.10
2023-03-30T14:55:12.044Z,49.48
2023-03-30T14:57:43.489Z,49.79
2023-03-30T15:00:29.457Z,50.67
2023-03-30T15:02:59.879Z,49.93
2023-03-30T15:05:36.214Z,49.83
2023-03-30T15:08:04.027Z,49.81
2023-03-30T15:10:45.092Z,50.05
2023-03-30T15:13:38.574Z,50.11
2023-03-30T15:16:06.574Z,50.23
2023-03-30T15:18:36.523Z,50.07
2023-03-30T15:21:03.653Z,50.65
2023-03-30T15:23:42.564Z,50.87
2023-03-30T15:26:11.395Z,50.73
2023-03-30T15:28:46.916Z,50.95
2023-03-30T15:31:15.171Z,51.50
2023-03-30T15:33:43.800Z,51.96
2023-03-30T15:36:17.567Z,52.30
2023-03-30T15:38:56.072Z,52.27
2023-03-30T15:41:42.645Z,52.44
2023-03-30T15:44:12.411Z,52.46
2023-03-30T15:46:40.622Z,52.79
2023-03-30T15:49:08.326Z,53.01
2023-03-30T15:51:58.392Z,52.91
2023-03-30T15:54:38.801Z,54.17
2023-03-30T15:57:13.453Z,54.88
2023-03-30T15:59:53.369Z,54.08
2023-03-30T16:02:23.616Z,54.95
2023-03-30T16:04:51.638Z,55.86
2023-03-30T16:07:27.005Z,56.72
2023-03-30T16:09:53.658Z,57.72
2023-03-30T16:12:25.295Z,60.55
2023-03-30T16:14:53.036Z,60.94
2023-03-30T16:17:19.679Z,62.49
2023-03-30T16:19:46.696Z,62.62
2023-03-30T16:22:15.072Z,65.47
2023-03-30T16:24:42.280Z,64.29
2023-03-30T16:27:12.061Z,65.26
2023-03-30T16:29:38.921Z,66.03
2023-03-30T16:32:05.930Z,68.80
2023-03-30T16:34:32.629Z,70.05
2023-03-30T16:36:59.356Z,70.71
2023-03-30T16:39:28.838Z,69.10
2023-03-30T16:41:56.159Z,71.44
2023-03-30T16:44:24.631Z,70.22
2023-03-30T16:46:52.400Z,73.20
2023-03-30T16:49:21.793Z,74.11
2023-03-30T16:51:49.253Z,74.34
2023-03-30T16:54:30.349Z,76.08
2023-03-30T16:56:59.014Z,77.05
2023-03-30T16:59:27.498Z,78.66
2023-03-30T17:01:54.104Z,76.97
2023-03-30T17:04:20.817Z,78.02
2023-03-30T17:06:47.570Z,79.72
2023-03-30T17:09:17.314Z,78.08
2023-03-30T17:11:48.897Z,77.17
2023-03-30T17:14:16.276Z,77.58
2023-03-30T17:16:42.982Z,78.00
2023-03-30T17:19:12.561Z,79.69
2023-03-30T17:21:40.325Z,81.91
2023-03-30T17:24:07.243Z,81.50
2023-03-30T17:26:33.850Z,83.20
2023-03-30T17:29:00.665Z,84.50
2023-03-30T17:31:27.433Z,83.94
2023-03-30T17:33:54.665Z,83.66
2023-03-30T17:36:26.510Z,83.82
2023-03-30T17:38:53.331Z,86.44
2023-03-30T17:41:20.997Z,86.01
2023-03-30T17:43:48.390Z,85.78
2023-03-30T17:46:17.902Z,87.25
2023-03-30T17:48:44.713Z,87.23
2023-03-30T17:51:11.492Z,87.63
2023-03-30T17:53:38.836Z,88.42
2023-03-30T17:56:06.287Z,89.26
2023-03-30T17:58:35.414Z,89.46
2023-03-30T18:01:04.918Z,89.08
2023-03-30T18:03:31.891Z,89.28
2023-03-30T18:06:00.237Z,91.13
2023-03-30T18:08:27.360Z,90.83
2023-03-30T18:10:55.612Z,88.76
2023-03-30T18:13:23.758Z,89.04
2023-03-30T18:15:54.744Z,92.00
2023-03-30T18:18:25.116Z,90.88
2023-03-30T18:20:59.519Z,90.75
2023-03-30T18:23:26.254Z,90.71
2023-03-30T18:25:52.883Z,90.01
2023-03-30T18:28:20.754Z,90.18
2023-03-30T18:30:48.118Z,90.15
2023-03-30T18:33:18.210Z,90.00
2023-03-30T18:35:47.381Z,90.44
2023-03-30T18:38:16.741Z,92.18
2023-03-30T18:40:46.093Z,92.96
2023-03-30T18:43:13.493Z,94.03
2023-03-30T18:45:42.589Z,93.09
2023-03-30T18:48:13.147Z,92.82
2023-03-30T18:50:43.363Z,93.43
2023-03-30T18:53:12.601Z,92.77
2023-03-30T18:55:41.872Z,92.75
2023-03-30T18:58:18.440Z,93.66
2023-03-30T19:00:45.203Z,94.01
2023-03-30T19:03:13.383Z,94.37
2023-03-30T19:05:41.428Z,94.07
2023-03-30T19:08:22.543Z,93.94
2023-03-30T19:10:51.618Z,94.17
2023-03-30T19:13:21.020Z,93.82
2023-03-30T19:15:49.299Z,95.15
2023-03-30T19:18:17.942Z,95.15
2023-03-30T19:20:45.179Z,96.14
2023-03-30T19:23:14.094Z,95.97
2023-03-30T19:25:43.449Z,95.60
2023-03-30T19:28:11.776Z,95.46
2023-03-30T19:30:39.890Z,95.34
2023-03-30T19:33:11.200Z,95.78
2023-03-30T19:35:41.000Z,94.57
2023-03-30T19:38:07.691Z,94.43
2023-03-30T19:40:34.296Z,95.37
2023-03-30T19:43:00.863Z,94.99
2023-03-30T19:45:27.604Z,94.87
2023-03-30T19:47:54.231Z,95.00
2023-03-30T19:50:23.306Z,95.24
2023-03-30T19:52:51.007Z,94.87
2023-03-30T19:55:19.280Z,95.32
2023-03-30T19:57:46.433Z,95.49
2023-03-30T20:00:16.013Z,95.24
2023-03-30T20:02:45.045Z,95.25
2023-03-30T20:05:15.842Z,96.89
2023-03-30T20:07:44.307Z,95.67
2023-03-30T20:10:14.750Z,95.61
2023-03-30T20:12:41.512Z,95.86
2023-03-30T20:15:09.791Z,95.74
2023-03-30T20:17:36.772Z,96.16
2023-03-30T20:20:09.158Z,96.65
2023-03-30T20:22:37.450Z,98.26
2023-03-30T20:25:07.241Z,98.63
2023-03-30T20:27:35.270Z,98.07
2023-03-30T20:30:02.844Z,99.03
2023-03-30T20:32:29.631Z,98.90
2023-03-30T20:34:56.337Z,98.21
2023-03-30T20:37:22.956Z,97.94
2023-03-30T20:39:50.629Z,98.05
2023-03-30T20:42:18.390Z,98.66
2023-03-30T20:44:50.009Z,99.05
2023-03-30T20:47:18.060Z,99.48
2023-03-30T20:49:46.513Z,99.20
2023-03-30T20:52:13.168Z,99.40
2023-03-30T20:54:41.170Z,100.00
2023-03-30T20:57:08.039Z,100.00
2023-03-30T20:59:34.779Z,100.00
2023-03-30T21:02:01.603Z,100.00
2023-03-30T21:04:28.749Z,100.00
2023-03-30T21:06:55.966Z,100.00
2023-03-30T21:09:22.636Z,100.00
2023-03-30T21:11:49.260Z,100.00
2023-03-30T21:14:15.923Z,100.00
2023-03-30T21:16:42.521Z,100.00
2023-03-30T21:19:09.686Z,100.00
2023-03-30T21:21:37.814Z,100.00
2023-03-30T21:24:06.169Z,100.00
2023-03-30T21:26:32.778Z,100.00
2023-03-30T21:28:59.392Z,100.00
2023-03-30T21:31:26.040Z,100.00
2023-03-30T21:33:52.846Z,100.00
2023-03-30T21:36:19.660Z,100.00
2023-03-30T21:38:46.396Z,100.00
2023-03-30T21:41:19.085Z,100.00
2023-03-30T21:43:47.380Z,100.00
2023-03-30T21:46:20.345Z,100.00
2023-03-30T21:48:49.439Z,100.00
2023-03-30T21:51:20.767Z,100.00
2023-03-30T21:53:49.100Z,100.00
2023-03-30T21:56:16.073Z,100.00
2023-03-30T21:58:42.828Z,100.00
2023-03-30T22:01:12.639Z,100.00
2023-03-30T22:03:41.944Z,100.00
2023-03-30T22:06:11.335Z,100.00
2023-03-30T22:08:38.079Z,100.00
2023-03-30T22:11:11.758Z,100.00
2023-03-30T22:13:38.347Z,100.00
2023-03-30T22:16:25.906Z,100.00
2023-03-30T22:18:52.901Z,100.00
2023-03-30T22:21:24.766Z,100.00
2023-03-30T22:23:52.439Z,100.00
2023-03-30T22:26:19.017Z,100.00
2023-03-30T22:28:45.786Z,100.00
2023-03-30T22:31:15.107Z,100.00
2023-03-30T22:33:42.127Z,100.00
2023-03-30T22:36:20.530Z,100.00
2023-03-30T22:38:48.478Z,100.00
2023-03-30T22:41:15.661Z,100.00
2023-03-30T22:43:42.264Z,100.00
2023-03-30T22:46:09.112Z,100.00
2023-03-30T22:48:36.096Z,100.00
2023-03-30T22:51:04.068Z,100.00
2023-03-30T22:53:31.959Z,100.00
2023-03-30T22:55:58.568Z,100.00
2023-03-30T22:58:25.376Z,100.00
2023-03-30T23:00:52.027Z,100.00
2023-03-30T23:03:18.896Z,100.00
2023-03-30T23:05:52.242Z,100.00
2023-03-30T23:08:18.854Z,100.00
2023-03-30T23:10:45.935Z,100.00
2023-03-30T23:13:13.928Z,100.00
2023-03-30T23:15:40.650Z,100.00
2023-03-30T23:18:07.256Z,100.00
2023-03-30T23:20:33.922Z,100.00
2023-03-30T23:23:00.521Z,100.00
2023-03-30T23:25:27.339Z,100.00
2023-03-30T23:27:54.007Z,100.00
2023-03-30T23:30:20.730Z,100.00
2023-03-30T23:32:47.334Z,100.00
2023-03-30T23:35:13.999Z,100.00
2023-03-30T23:37:41.024Z,100.00
2023-03-30T23:40:08.373Z,100.00
2023-03-30T23:42:35.097Z,100.00
2023-03-30T23:45:01.770Z,100.00
2023-03-30T23:47:28.622Z,100.00
2023-03-30T23:49:55.267Z,100.00
2023-03-30T23:52:21.877Z,100.00
2023-03-30T23:54:52.289Z,100.00
2023-03-30T23:57:20.429Z,100.00
2023-03-30T23:59:47.167Z,100.00
